Time;durP1;ratioP1;P1;durP2;ratioP2;P2;SDS_P1;SDS_P2;PMS_P1;PMS_P2;Temp;Humidity;BMP_temperature;BMP_pressure;BME280_temperature;BME280_humidity;BME280_pressure;Samples;Min_cycle;Max_cycle;Signal;HPM_P1;HPM_P2
2024/03/23 00:02:03;;;;;;;;;;;;;;;-144.99;100.00;52541.84;5015393;28;20429;-64
2024/03/23 00:04:31;;;;;;;;;;;;;;;-144.99;100.00;52566.31;4665940;28;10000456;-64
2024/03/23 00:06:58;;;;;;;;;;;;;;;-144.99;100.00;52570.38;5024117;28;20013;-64
2024/03/23 00:09:27;;;;;;;;;;;;;;;-144.99;100.00;52550.00;5013393;28;19968;-64
2024/03/23 00:11:54;;;;;;;;;;;;;;;-144.99;100.00;52550.00;5006764;28;19995;-64
2024/03/23 00:14:22;;;;;;;;;;;;;;;-144.99;100.00;52574.47;5007160;28;19980;-72
2024/03/23 00:16:50;;;;;;;;;;;;;;;-144.99;100.00;52574.47;5004141;28;19972;-72
2024/03/23 00:19:18;;;;;;;;;;;;;;;-144.99;100.00;52554.09;5023617;28;19968;-72
2024/03/23 00:21:45;;;;;;;;;;;;;;;-144.99;100.00;52566.31;5017487;28;19937;-69
2024/03/23 00:24:14;;;;;;;;;;;;;;;-144.99;100.00;52521.47;5006912;28;19936;-69
2024/03/23 00:26:41;;;;;;;;;;;;;;;-144.99;100.00;52550.00;5019757;28;20375;-69
2024/03/23 00:29:09;;;;;;;;;;;;;;;-144.99;100.00;52582.63;5020403;28;19925;-70
2024/03/23 00:31:37;;;;;;;;;;;;;;;-144.99;100.00;52545.94;5017330;28;20440;-70
2024/03/23 00:34:05;;;;;;;;;;;;;;;-144.99;100.00;52550.00;5015150;28;19951;-70
2024/03/23 00:36:32;;;;;;;;;;;;;;;-144.99;100.00;52558.16;5013476;28;19957;-70
2024/03/23 00:39:00;;;;;;;;;;;;;;;-144.99;100.00;52533.69;5014697;28;20310;-70
2024/03/23 00:41:28;;;;;;;;;;;;;;;-144.99;100.00;52582.63;5014688;28;19925;-69
2024/03/23 00:43:56;;;;;;;;;;;;;;;-144.99;100.00;52590.78;5020453;28;19944;-68
2024/03/23 00:46:23;;;;;;;;;;;;;;;-144.99;100.00;52509.25;5009290;28;20864;-69
2024/03/23 00:48:52;;;;;;;;;;;;;;;-144.99;100.00;52564.28;5018002;28;20314;-69
2024/03/23 00:51:19;;;;;;;;;;;;;;;-144.99;100.00;52547.97;5021702;28;20032;-70
2024/03/23 00:53:47;;;;;;;;;;;;;;;-144.99;100.00;52547.97;5021274;28;19925;-71
2024/03/23 00:56:12;;;;;;;;;;;;;;;-144.99;100.00;52562.25;5008180;28;20321;-70
2024/03/23 00:58:39;;;;;;;;;;;;;;;-144.99;100.00;52590.78;5016337;28;19976;-71
2024/03/23 01:01:04;;;;;;;;;;;;;;;-144.99;100.00;52547.97;5021047;28;19949;-71
2024/03/23 01:03:31;;;;;;;;;;;;;;;-144.99;100.00;52566.31;5017739;28;20379;-70
2024/03/23 01:05:58;;;;;;;;;;;;;;;-144.99;100.00;52556.13;5009182;28;20021;-70
2024/03/23 01:08:25;;;;;;;;;;;;;;;-144.99;100.00;52578.53;5020331;28;19928;-71
2024/03/23 01:10:56;;;;;;;;;;;;;;;-144.99;100.00;52562.25;5011933;28;19997;-71
2024/03/23 01:13:23;;;;;;;;;;;;;;;-144.99;100.00;52607.09;5017705;28;19948;-70
2024/03/23 01:15:49;;;;;;;;;;;;;;;-144.99;100.00;52619.31;5012012;28;19926;-66
2024/03/23 01:18:15;;;;;;;;;;;;;;;-144.99;100.00;52558.16;5006528;28;20347;-68
2024/03/23 01:20:41;;;;;;;;;;;;;;;-144.99;100.00;52537.78;5010229;28;19940;-72
2024/03/23 01:23:07;;;;;;;;;;;;;;;-144.99;100.00;52529.63;5016428;28;19933;-73
2024/03/23 01:25:33;;;;;;;;;;;;;;;-144.99;100.00;52550.00;5018331;28;19980;-73
2024/03/23 01:28:00;;;;;;;;;;;;;;;-144.99;100.00;52592.81;5012461;28;20321;-74
2024/03/23 01:30:26;;;;;;;;;;;;;;;-144.99;100.00;52554.09;5016919;28;20391;-75
2024/03/23 01:32:52;;;;;;;;;;;;;;;-144.99;100.00;52545.94;5024924;28;19964;-75
2024/03/23 01:35:18;;;;;;;;;;;;;;;-144.99;100.00;52554.09;5007372;28;19995;-74
2024/03/23 01:37:44;;;;;;;;;;;;;;;-144.99;100.00;52570.38;5007875;28;20294;-75
2024/03/23 01:40:10;;;;;;;;;;;;;;;-144.99;100.00;52531.66;5006765;28;19961;-76
2024/03/23 01:42:37;;;;;;;;;;;;;;;-144.99;100.00;52541.84;5021953;28;20422;-74
2024/03/23 01:45:07;;;;;;;;;;;;;;;-144.99;100.00;52562.25;5016526;28;20040;-75
2024/03/23 01:47:33;;;;;;;;;;;;;;;-144.99;100.00;52590.78;5011670;28;19925;-72
2024/03/23 01:49:59;;;;;;;;;;;;;;;-144.99;100.00;52578.53;5009084;28;20062;-71
2024/03/23 01:52:27;;;;;;;;;;;;;;;-144.99;100.00;52554.09;5011566;28;19965;-72
2024/03/23 01:54:52;;;;;;;;;;;;;;;-144.99;100.00;52547.97;5012216;28;19932;-72
2024/03/23 01:57:20;;;;;;;;;;;;;;;-144.99;100.00;52562.25;5013236;28;20296;-73
2024/03/23 01:59:46;;;;;;;;;;;;;;;-144.99;100.00;52560.19;5012207;28;19933;-72
2024/03/23 02:02:14;;;;;;;;;;;;;;;-144.99;100.00;52582.63;5015329;28;20335;-72
2024/03/23 02:04:40;;;;;;;;;;;;;;;-144.99;100.00;52554.09;5016629;28;20027;-73
2024/03/23 02:07:07;;;;;;;;;;;;;;;-144.99;100.00;52574.47;5017622;28;20008;-72
2024/03/23 02:09:33;;;;;;;;;;;;;;;-144.99;100.00;52562.25;5023432;28;20403;-72
2024/03/23 02:11:59;;;;;;;;;;;;;;;-144.99;100.00;52574.47;5012888;28;19979;-72
2024/03/23 02:14:25;;;;;;;;;;;;;;;-144.99;100.00;52537.78;5020622;28;19934;-71
2024/03/23 02:16:51;;;;;;;;;;;;;;;-144.99;100.00;52560.19;5014258;28;19932;-71
2024/03/23 02:19:18;;;;;;;;;;;;;;;-144.99;100.00;52541.84;5010790;28;20153;-71
2024/03/23 02:21:46;;;;;;;;;;;;;;;-144.99;100.00;52596.88;5016588;28;20387;-71
2024/03/23 02:24:13;;;;;;;;;;;;;;;-144.99;100.00;52537.78;5023310;28;19929;-72
2024/03/23 02:26:40;;;;;;;;;;;;;;;-144.99;100.00;52570.38;5020005;28;20257;-72
2024/03/23 02:29:05;;;;;;;;;;;;;;;-144.99;100.00;52598.94;5021241;28;19928;-69
2024/03/23 02:31:32;;;;;;;;;;;;;;;-144.99;100.00;52554.09;5013333;28;19976;-70
2024/03/23 02:33:57;;;;;;;;;;;;;;;-144.99;100.00;52580.59;5011939;28;19976;-70
2024/03/23 02:36:24;;;;;;;;;;;;;;;-144.99;100.00;52566.31;5014882;28;19972;-69
2024/03/23 02:38:49;;;;;;;;;;;;;;;-144.99;100.00;52572.44;5019109;28;20015;-69
2024/03/23 02:41:22;;;;;;;;;;;;;;;-144.99;100.00;52558.16;5024369;28;20034;-70
2024/03/23 02:43:48;;;;;;;;;;;;;;;-144.99;100.00;52537.78;5009207;28;19925;-72
2024/03/23 02:46:15;;;;;;;;;;;;;;;-144.99;100.00;52578.53;5015231;28;19982;-68
2024/03/23 02:48:40;;;;;;;;;;;;;;;-144.99;100.00;52558.16;5020364;28;20038;-70
2024/03/23 02:51:07;;;;;;;;;;;;;;;-144.99;100.00;52584.66;5023343;28;20396;-70
2024/03/23 02:53:32;;;;;;;;;;;;;;;-144.99;100.00;52547.97;5017251;28;19926;-73
2024/03/23 02:55:58;;;;;;;;;;;;;;;-144.99;100.00;52554.09;5020678;28;19953;-72
2024/03/23 02:58:25;;;;;;;;;;;;;;;-144.99;100.00;52566.31;5018376;28;19994;-72
2024/03/23 03:00:52;;;;;;;;;;;;;;;-144.99;100.00;52570.38;5021853;28;19941;-73
2024/03/23 03:03:17;;;;;;;;;;;;;;;-144.99;100.00;52537.78;5010208;28;20024;-73
2024/03/23 03:05:44;;;;;;;;;;;;;;;-144.99;100.00;52554.09;5008440;28;20016;-68
2024/03/23 03:08:09;;;;;;;;;;;;;;;-144.99;100.00;52552.03;5011202;28;20292;-69
2024/03/23 03:10:36;;;;;;;;;;;;;;;-144.99;100.00;52570.38;5019998;28;19934;-68
2024/03/23 03:13:02;;;;;;;;;;;;;;;-144.99;100.00;52541.84;5025686;28;19925;-69
2024/03/23 03:15:30;;;;;;;;;;;;;;;-144.99;100.00;52611.16;5011957;28;19926;-69
2024/03/23 03:17:57;;;;;;;;;;;;;;;-144.99;100.00;52554.09;5014215;28;20293;-71
2024/03/23 03:20:24;;;;;;;;;;;;;;;-144.99;100.00;52545.94;5020945;28;19949;-71
2024/03/23 03:22:49;;;;;;;;;;;;;;;-144.99;100.00;52558.16;5022694;28;19984;-70
2024/03/23 03:25:16;;;;;;;;;;;;;;;-144.99;100.00;52588.75;5020569;28;19965;-69
2024/03/23 03:27:41;;;;;;;;;;;;;;;-144.99;100.00;52570.38;5007855;28;20353;-69
2024/03/23 03:30:08;;;;;;;;;;;;;;;-144.99;100.00;52545.94;5020684;28;19968;-68
2024/03/23 03:32:35;;;;;;;;;;;;;;;-144.99;100.00;52576.50;5023899;28;20395;-70
2024/03/23 03:35:02;;;;;;;;;;;;;;;-144.99;100.00;52558.16;5019031;28;20304;-68
2024/03/23 03:37:27;;;;;;;;;;;;;;;-144.99;100.00;52556.13;5009063;28;20333;-66
2024/03/23 03:39:54;;;;;;;;;;;;;;;-144.99;100.00;52558.16;5015602;28;19943;-67
2024/03/23 03:42:19;;;;;;;;;;;;;;;-144.99;100.00;52541.84;5013791;28;20028;-66
2024/03/23 03:44:46;;;;;;;;;;;;;;;-144.99;100.00;52590.78;5020999;28;20024;-67
2024/03/23 03:47:11;;;;;;;;;;;;;;;-144.99;100.00;52590.78;5013959;28;19933;-73
2024/03/23 03:49:39;;;;;;;;;;;;;;;-144.99;100.00;52562.25;5014505;28;20372;-69
2024/03/23 03:52:04;;;;;;;;;;;;;;;-144.99;100.00;52552.03;5015769;28;20038;-70
2024/03/23 03:54:31;;;;;;;;;;;;;;;-144.99;100.00;52578.53;5009988;28;19961;-71
2024/03/23 03:56:56;;;;;;;;;;;;;;;-144.99;100.00;52545.94;5016569;28;20044;-71
2024/03/23 03:59:23;;;;;;;;;;;;;;;-144.99;100.00;52570.38;5009851;28;20415;-71
2024/03/23 04:01:48;;;;;;;;;;;;;;;-144.99;100.00;52554.09;5009435;28;20036;-71
2024/03/23 04:04:16;;;;;;;;;;;;;;;-144.99;100.00;52566.31;5022309;28;20380;-72
2024/03/23 04:06:43;;;;;;;;;;;;;;;-144.99;100.00;52558.16;5012845;28;19933;-71
2024/03/23 04:09:10;;;;;;;;;;;;;;;-144.99;100.00;52513.31;5009328;28;19930;-72
2024/03/23 04:11:35;;;;;;;;;;;;;;;-144.99;100.00;52562.25;5009931;28;20288;-75
2024/03/23 04:14:02;;;;;;;;;;;;;;;-144.99;100.00;52521.47;5018416;28;19926;-75
2024/03/23 04:16:27;;;;;;;;;;;;;;;-144.99;100.00;52578.53;5010337;28;20007;-75
2024/03/23 04:18:54;;;;;;;;;;;;;;;-144.99;100.00;52574.47;5016106;28;19953;-68
2024/03/23 04:21:21;;;;;;;;;;;;;;;-144.99;100.00;52607.09;5007416;28;20273;-70
2024/03/23 04:23:47;;;;;;;;;;;;;;;-144.99;100.00;52554.09;5012806;28;20406;-70
2024/03/23 04:26:14;;;;;;;;;;;;;;;-144.99;100.00;52566.31;5011515;28;20019;-72
2024/03/23 04:28:39;;;;;;;;;;;;;;;-144.99;100.00;52541.84;5015132;28;20256;-70
2024/03/23 04:31:06;;;;;;;;;;;;;;;-144.99;100.00;52562.25;5006637;28;19987;-71
2024/03/23 04:33:31;;;;;;;;;;;;;;;-144.99;100.00;52545.94;5022079;28;19936;-70
2024/03/23 04:35:58;;;;;;;;;;;;;;;-144.99;100.00;52550.00;5012545;28;19925;-70
2024/03/23 04:38:24;;;;;;;;;;;;;;;-144.99;100.00;52537.78;5010738;28;19932;-69
2024/03/23 04:40:56;;;;;;;;;;;;;;;-144.99;100.00;52572.44;5014952;28;20053;-69
2024/03/23 04:43:22;;;;;;;;;;;;;;;-144.99;100.00;52566.31;5012125;28;19929;-71
2024/03/23 04:45:49;;;;;;;;;;;;;;;-144.99;100.00;52558.16;5020267;28;19936;-67
2024/03/23 04:48:15;;;;;;;;;;;;;;;-144.99;100.00;52552.03;5019835;28;20023;-68
2024/03/23 04:50:42;;;;;;;;;;;;;;;-144.99;100.00;52529.63;5025872;28;19929;-68
2024/03/23 04:53:07;;;;;;;;;;;;;;;-144.99;100.00;52615.25;5008828;28;19925;-67
2024/03/23 04:55:34;;;;;;;;;;;;;;;-144.99;100.00;52574.47;5015106;28;20016;-68
2024/03/23 04:58:00;;;;;;;;;;;;;;;-144.99;100.00;52570.38;5019759;28;19970;-67
2024/03/23 05:00:27;;;;;;;;;;;;;;;-144.99;100.00;52588.75;5021195;28;20051;-67
2024/03/23 05:02:53;;;;;;;;;;;;;;;-144.99;100.00;52560.19;5005363;28;20191;-66
2024/03/23 05:05:19;;;;;;;;;;;;;;;-144.99;100.00;52582.63;5011720;28;20044;-65
2024/03/23 05:07:45;;;;;;;;;;;;;;;-144.99;100.00;52562.25;5011633;28;20012;-66
2024/03/23 05:10:13;;;;;;;;;;;;;;;-144.99;100.00;52590.78;5020490;28;20419;-65
2024/03/23 05:12:38;;;;;;;;;;;;;;;-144.99;100.00;52545.94;5021857;28;20017;-66
2024/03/23 05:15:07;;;;;;;;;;;;;;;-144.99;100.00;52554.09;5007636;28;20004;-66
2024/03/23 05:17:33;;;;;;;;;;;;;;;-144.99;100.00;52529.63;5013304;28;19926;-66
2024/03/23 05:19:59;;;;;;;;;;;;;;;-144.99;100.00;52570.38;5026546;28;20354;-66
2024/03/23 05:22:25;;;;;;;;;;;;;;;-144.99;100.00;52570.38;5006806;28;20012;-67
2024/03/23 05:24:51;;;;;;;;;;;;;;;-144.99;100.00;52550.00;5025316;28;20033;-70
2024/03/23 05:27:17;;;;;;;;;;;;;;;-144.99;100.00;52574.47;5006915;28;19926;-70
2024/03/23 05:29:43;;;;;;;;;;;;;;;-144.99;100.00;52556.13;5022345;28;19952;-72
2024/03/23 05:32:10;;;;;;;;;;;;;;;-144.99;100.00;52570.38;5005750;28;19947;-70
2024/03/23 05:34:37;;;;;;;;;;;;;;;-144.99;100.00;52582.63;5020574;28;19975;-70
2024/03/23 05:37:02;;;;;;;;;;;;;;;-144.99;100.00;52586.69;5016829;28;20309;-71
2024/03/23 05:39:29;;;;;;;;;;;;;;;-144.99;100.00;52550.00;5015304;28;19972;-71
2024/03/23 05:41:54;;;;;;;;;;;;;;;-144.99;100.00;52550.00;5016331;28;19972;-71
2024/03/23 05:44:21;;;;;;;;;;;;;;;-144.99;100.00;52574.47;5012437;28;19960;-69
2024/03/23 05:46:48;;;;;;;;;;;;;;;-144.99;100.00;52533.69;5020832;28;19932;-68
2024/03/23 05:49:16;;;;;;;;;;;;;;;-144.99;100.00;52592.81;5025782;28;20021;-68
2024/03/23 05:51:42;;;;;;;;;;;;;;;-144.99;100.00;52562.25;5027169;28;20308;-68
2024/03/23 05:54:08;;;;;;;;;;;;;;;-144.99;100.00;52564.28;5016489;28;19999;-69
2024/03/23 05:56:34;;;;;;;;;;;;;;;-144.99;100.00;52574.47;5008889;28;19995;-70
2024/03/23 05:59:00;;;;;;;;;;;;;;;-144.99;100.00;52541.84;5023860;28;19983;-70
2024/03/23 06:01:28;;;;;;;;;;;;;;;-144.99;100.00;52550.00;5022473;28;19925;-71
2024/03/23 06:03:55;;;;;;;;;;;;;;;-144.99;100.00;52562.25;5012600;28;19948;-72
2024/03/23 06:06:22;;;;;;;;;;;;;;;-144.99;100.00;52598.94;5019688;28;19961;-75
2024/03/23 06:08:48;;;;;;;;;;;;;;;-144.99;100.00;52582.63;5022901;28;20228;-72
2024/03/23 06:11:14;;;;;;;;;;;;;;;-144.99;100.00;52545.94;5019324;28;19979;-72
2024/03/23 06:13:40;;;;;;;;;;;;;;;-144.99;100.00;52554.09;5011718;28;20396;-71
2024/03/23 06:16:06;;;;;;;;;;;;;;;-144.99;100.00;52545.94;5012920;28;19929;-71
2024/03/23 06:18:33;;;;;;;;;;;;;;;-144.99;100.00;52554.09;5008465;28;19933;-71
2024/03/23 06:20:58;;;;;;;;;;;;;;;-144.99;100.00;52562.25;5017562;28;19968;-69
2024/03/23 06:23:26;;;;;;;;;;;;;;;-144.99;100.00;52580.59;5010433;28;19976;-65
2024/03/23 06:25:52;;;;;;;;;;;;;;;-144.99;100.00;52594.84;5009947;28;19975;-64
2024/03/23 06:28:20;;;;;;;;;;;;;;;-144.99;100.00;52570.38;5019511;28;19937;-65
2024/03/23 06:30:46;;;;;;;;;;;;;;;-144.99;100.00;52492.94;5016102;28;19936;-65
2024/03/23 06:33:13;;;;;;;;;;;;;;;-144.99;100.00;52560.19;5017033;28;19929;-64
2024/03/23 06:35:38;;;;;;;;;;;;;;;-144.99;100.00;52560.19;5009654;28;19979;-64
2024/03/23 06:38:05;;;;;;;;;;;;;;;-144.99;100.00;52554.09;5014086;28;19937;-64
2024/03/23 06:40:32;;;;;;;;;;;;;;;-144.99;100.00;52594.84;5020434;28;19983;-64
2024/03/23 06:42:58;;;;;;;;;;;;;;;-144.99;100.00;52582.63;5026096;28;19933;-64
2024/03/23 06:45:24;;;;;;;;;;;;;;;-144.99;100.00;52558.16;5007999;28;20280;-70
2024/03/23 06:47:51;;;;;;;;;;;;;;;-144.99;100.00;52525.56;5023496;28;20022;-71
2024/03/23 06:50:16;;;;;;;;;;;;;;;-144.99;100.00;52582.63;5018440;28;20311;-69
2024/03/23 06:52:43;;;;;;;;;;;;;;;-144.99;100.00;52529.63;5025239;28;19933;-65
2024/03/23 06:55:09;;;;;;;;;;;;;;;-144.99;100.00;52566.31;5012243;28;20303;-64
2024/03/23 06:57:36;;;;;;;;;;;;;;;-144.99;100.00;52558.16;5017473;28;19947;-65
2024/03/23 07:00:02;;;;;;;;;;;;;;;-144.99;100.00;52541.84;5018783;28;20143;-65
2024/03/23 07:02:29;;;;;;;;;;;;;;;-144.99;100.00;52566.31;5015046;28;20045;-64
2024/03/23 07:04:54;;;;;;;;;;;;;;;-144.99;100.00;52574.47;5022666;28;19953;-64
2024/03/23 07:07:21;;;;;;;;;;;;;;;-144.99;100.00;52558.16;5014988;28;20414;-64
2024/03/23 07:09:46;;;;;;;;;;;;;;;-144.99;100.00;52550.00;5022041;28;19960;-70
2024/03/23 07:12:13;;;;;;;;;;;;;;;-144.99;100.00;52523.50;5025031;28;19972;-70
2024/03/23 07:14:39;;;;;;;;;;;;;;;-144.99;100.00;52562.25;5012317;28;20056;-71
2024/03/23 07:17:06;;;;;;;;;;;;;;;-144.99;100.00;52537.78;5009822;28;19952;-70
2024/03/23 07:19:31;;;;;;;;;;;;;;;-144.99;100.00;52550.00;5027060;28;19956;-68
2024/03/23 07:21:58;;;;;;;;;;;;;;;-144.99;100.00;52574.47;5022448;28;19976;-69
2024/03/23 07:24:23;;;;;;;;;;;;;;;-144.99;100.00;52545.94;5009193;28;19925;-68
2024/03/23 07:26:51;;;;;;;;;;;;;;;-144.99;100.00;52541.84;5007683;28;20040;-66
2024/03/23 07:29:16;;;;;;;;;;;;;;;-144.99;100.00;52511.28;5022534;28;19933;-65
2024/03/23 07:31:44;;;;;;;;;;;;;;;-144.99;100.00;52525.56;5023642;28;20272;-66
2024/03/23 07:34:09;;;;;;;;;;;;;;;-144.99;100.00;52545.94;5020315;28;19929;-64
2024/03/23 07:36:36;;;;;;;;;;;;;;;-144.99;99.64;52521.47;5009517;28;20472;-65
2024/03/23 07:39:01;;;;;;;;;;;;;;;-144.99;99.46;52511.28;5010634;28;20024;-65
2024/03/23 07:41:28;;;;;;;;;;;;;;;-144.99;99.32;52533.69;5024300;28;20008;-64
2024/03/23 07:43:53;;;;;;;;;;;;;;;-144.99;98.06;52521.47;5020873;28;20016;-66
2024/03/23 07:46:20;;;;;;;;;;;;;;;-144.99;97.22;52572.44;5011477;28;20008;-69
2024/03/23 07:48:47;;;;;;;;;;;;;;;-144.99;97.83;52515.34;5013366;28;19925;-67
2024/03/23 07:51:16;;;;;;;;;;;;;;;-144.99;96.83;52550.00;5023760;28;19933;-68
2024/03/23 07:53:43;;;;;;;;;;;;;;;-144.99;96.77;52505.16;5021467;28;19964;-69
2024/03/23 07:56:10;;;;;;;;;;;;;;;-144.99;96.32;52525.56;5023575;28;19925;-69
2024/03/23 07:58:36;;;;;;;;;;;;;;;-144.99;96.52;52537.78;5009766;28;19935;-69
2024/03/23 08:01:07;;;;;;;;;;;;;;;-144.99;95.53;52497.00;5022633;28;19929;-69
2024/03/23 08:03:33;;;;;;;;;;;;;;;-144.99;94.95;52501.09;5018229;28;19929;-67
2024/03/23 08:06:07;;;;;;;;;;;;;;;-144.99;94.57;52452.16;5011749;28;20032;-66
2024/03/23 08:08:32;;;;;;;;;;;;;;;-144.99;93.52;52505.16;5014832;28;19965;-69
2024/03/23 08:10:59;;;;;;;;;;;;;;;-144.99;93.80;52505.16;5006791;28;19953;-67
2024/03/23 08:13:24;;;;;;;;;;;;;;;-144.99;92.44;52497.00;5010833;28;19968;-68
2024/03/23 08:15:51;;;;;;;;;;;;;;;-144.99;92.88;52497.00;5015387;28;20010;-70
2024/03/23 08:18:16;;;;;;;;;;;;;;;-144.99;92.94;52525.56;5019296;28;19968;-69
2024/03/23 08:20:43;;;;;;;;;;;;;;;-144.99;91.56;52480.72;5012605;28;20807;-68
2024/03/23 08:23:09;;;;;;;;;;;;;;;-144.99;90.88;52492.94;5016782;28;20036;-69
2024/03/23 08:25:36;;;;;;;;;;;;;;;-144.99;90.41;52497.00;5021054;28;19932;-69
2024/03/23 08:28:01;;;;;;;;;;;;;;;-144.99;89.35;52484.78;5015021;28;20332;-70
2024/03/23 08:30:28;;;;;;;;;;;;;;;-144.99;88.30;52488.84;5016651;28;19988;-68
2024/03/23 08:32:54;;;;;;;;;;;;;;;-144.99;87.81;52515.34;5017769;28;19951;-69
2024/03/23 08:35:21;;;;;;;;;;;;;;;-144.99;88.88;52562.25;5008422;28;19925;-69
2024/03/23 08:37:46;;;;;;;;;;;;;;;-144.99;89.69;52509.25;5010116;28;20020;-68
2024/03/23 08:40:14;;;;;;;;;;;;;;;-144.99;90.03;52545.94;5009236;28;20432;-69
2024/03/23 08:42:40;;;;;;;;;;;;;;;-144.99;88.96;52525.56;5006444;28;20307;-69
2024/03/23 08:45:07;;;;;;;;;;;;;;;-144.99;88.11;52509.25;5018514;28;19925;-67
2024/03/23 08:47:34;;;;;;;;;;;;;;;-144.99;86.66;52501.09;5015261;28;20024;-68
2024/03/23 08:50:01;;;;;;;;;;;;;;;-144.99;85.52;52505.16;5022467;28;19929;-68
2024/03/23 08:52:28;;;;;;;;;;;;;;;-144.99;84.21;52486.81;5013793;28;20030;-67
2024/03/23 08:54:55;;;;;;;;;;;;;;;-144.99;84.13;52525.56;5014073;28;19955;-67
2024/03/23 08:57:22;;;;;;;;;;;;;;;-144.99;83.99;52484.78;5022416;28;19925;-67
2024/03/23 08:59:49;;;;;;;;;;;;;;;-144.99;82.88;52472.56;5009486;28;19936;-68
2024/03/23 09:02:15;;;;;;;;;;;;;;;-144.99;80.13;52497.00;5017154;28;19936;-68
2024/03/23 09:04:41;;;;;;;;;;;;;;;-144.99;79.26;52427.72;5015678;28;19929;-68
2024/03/23 09:07:06;;;;;;;;;;;;;;;-144.99;77.35;52480.72;5015366;28;19925;-68
2024/03/23 09:09:33;;;;;;;;;;;;;;;-144.99;75.08;52472.56;5015230;28;20016;-68
2024/03/23 09:11:58;;;;;;;;;;;;;;;-144.99;75.61;52497.00;5008276;28;20391;-68
2024/03/23 09:14:26;;;;;;;;;;;;;;;-144.99;76.84;52513.31;5013973;28;19973;-67
2024/03/23 09:16:52;;;;;;;;;;;;;;;-144.99;77.59;52537.78;5024919;28;20019;-68
2024/03/23 09:19:18;;;;;;;;;;;;;;;-144.99;77.65;52478.66;5021833;28;20022;-68
2024/03/23 09:21:44;;;;;;;;;;;;;;;-144.99;77.16;52492.94;5012721;28;19929;-68
2024/03/23 09:24:10;;;;;;;;;;;;;;;-144.99;76.91;52488.84;5028278;28;19929;-68
2024/03/23 09:26:36;;;;;;;;;;;;;;;-144.99;76.86;52521.47;5027478;28;19979;-68
2024/03/23 09:29:02;;;;;;;;;;;;;;;-144.99;76.73;52529.63;5022742;28;19964;-68
2024/03/23 09:31:31;;;;;;;;;;;;;;;-144.99;77.00;52517.41;5021077;28;19929;-68
2024/03/23 09:33:57;;;;;;;;;;;;;;;-144.99;78.04;52525.56;5014550;28;20291;-67
2024/03/23 09:36:23;;;;;;;;;;;;;;;-144.99;78.66;52509.25;5019163;28;20099;-67
2024/03/23 09:38:50;;;;;;;;;;;;;;;-144.99;79.72;52523.50;5020627;28;20116;-67
2024/03/23 09:41:15;;;;;;;;;;;;;;;-144.99;80.60;52533.69;5020325;28;19933;-67
2024/03/23 09:43:42;;;;;;;;;;;;;;;-144.99;78.90;52492.94;5013875;28;20038;-68
2024/03/23 09:46:07;;;;;;;;;;;;;;;-144.99;76.98;52529.63;5017821;28;20392;-67
2024/03/23 09:48:35;;;;;;;;;;;;;;;-144.99;75.76;52492.94;5021638;28;19980;-66
2024/03/23 09:51:02;;;;;;;;;;;;;;;-144.99;74.61;52505.16;5022384;28;19926;-67
2024/03/23 09:53:29;;;;;;;;;;;;;;;-144.99;74.44;52452.16;5018328;28;19926;-67
2024/03/23 09:55:54;;;;;;;;;;;;;;;-144.99;71.16;52472.56;5009349;28;19925;-68
2024/03/23 09:58:21;;;;;;;;;;;;;;;-144.99;69.27;52421.59;5027388;28;19936;-67
2024/03/23 10:00:46;;;;;;;;;;;;;;;-144.99;68.07;52407.31;5020679;28;19945;-67
2024/03/23 10:03:13;;;;;;;;;;;;;;;-144.99;66.08;52446.06;5020830;28;19931;-67
2024/03/23 10:05:40;;;;;;;;;;;;;;;-144.99;66.05;52427.72;5014509;28;19925;-67
2024/03/23 10:08:18;;;;;;;;;;;;;;;-144.99;67.64;52488.84;5024286;28;19982;-68
2024/03/23 10:10:44;;;;;;;;;;;;;;;-144.99;67.07;52472.56;5025768;28;19933;-68
2024/03/23 10:13:12;;;;;;;;;;;;;;;-144.99;67.07;52497.00;5019142;28;19964;-67
2024/03/23 10:15:38;;;;;;;;;;;;;;;-144.99;67.42;52460.31;5010459;28;20049;-67
2024/03/23 10:18:18;;;;;;;;;;;;;;;-144.99;68.05;52472.56;5010806;28;19992;-67
2024/03/23 10:20:46;;;;;;;;;;;;;;;-144.99;67.64;52509.25;5026601;28;20032;-68
2024/03/23 10:23:16;;;;;;;;;;;;;;;-144.99;68.43;52513.31;5015065;28;19940;-68
2024/03/23 10:25:42;;;;;;;;;;;;;;;-144.99;69.10;52511.28;5021901;28;19933;-68
2024/03/23 10:28:09;;;;;;;;;;;;;;;-144.99;69.11;52582.63;5012944;28;20007;-68
2024/03/23 10:30:34;;;;;;;;;;;;;;;-144.99;69.04;52537.78;5015452;28;20040;-68
2024/03/23 10:33:07;;;;;;;;;;;;;;;-144.99;69.30;52515.34;5028302;28;20059;-68
2024/03/23 10:35:33;;;;;;;;;;;;;;;-144.99;69.64;52488.84;5020265;28;20004;-68
2024/03/23 10:38:01;;;;;;;;;;;;;;;-144.99;69.01;52501.09;5009739;28;19933;-67
2024/03/23 10:40:27;;;;;;;;;;;;;;;-144.99;69.17;52562.25;5020989;28;20002;-67
2024/03/23 10:42:53;;;;;;;;;;;;;;;-144.99;69.68;52382.88;5014419;28;19931;-68
2024/03/23 10:45:19;;;;;;;;;;;;;;;-144.99;68.88;52541.84;5019127;28;19932;-68
2024/03/23 10:47:45;;;;;;;;;;;;;;;-144.99;67.44;52474.59;5023576;28;20012;-67
2024/03/23 10:50:11;;;;;;;;;;;;;;;-144.99;67.32;52503.13;5014651;28;19929;-68
2024/03/23 10:52:37;;;;;;;;;;;;;;;-144.99;67.91;52505.16;5015871;28;20435;-69
2024/03/23 10:55:06;;;;;;;;;;;;;;;-144.99;68.87;52521.47;5022091;28;19987;-67
2024/03/23 10:57:35;;;;;;;;;;;;;;;-144.99;69.82;52509.25;5023042;28;20419;-67
2024/03/23 11:00:02;;;;;;;;;;;;;;;-144.99;70.35;52464.41;5015449;28;19972;-68
2024/03/23 11:02:29;;;;;;;;;;;;;;;-144.99;70.14;52407.31;5017250;28;19933;-68
2024/03/23 11:04:55;;;;;;;;;;;;;;;-144.99;68.77;52480.72;5018271;28;19932;-67
2024/03/23 11:07:29;;;;;;;;;;;;;;;-144.99;66.55;52509.25;5020041;28;19925;-67
2024/03/23 11:09:55;;;;;;;;;;;;;;;-144.99;66.18;52374.72;5010681;28;19925;-68
2024/03/23 11:12:31;;;;;;;;;;;;;;;-144.99;64.84;52441.97;5012011;28;20269;-68
2024/03/23 11:14:59;;;;;;;;;;;;;;;-144.99;61.31;52452.16;5012669;28;19925;-68
2024/03/23 11:17:26;;;;;;;;;;;;;;;-144.99;60.15;52272.81;5012478;28;19988;-68
2024/03/23 11:19:56;;;;;;;;;;;;;;;-144.99;58.90;52321.72;5026523;28;19968;-67
2024/03/23 11:22:44;;;;;;;;;;;;;;;-144.99;58.70;52403.25;5009795;28;19929;-68
2024/03/23 11:25:13;;;;;;;;;;;;;;;-144.99;60.34;52452.16;5012119;28;20034;-68
2024/03/23 11:27:41;;;;;;;;;;;;;;;-144.99;62.58;52484.78;5020369;28;20333;-67
2024/03/23 11:30:12;;;;;;;;;;;;;;;-144.99;64.92;52517.41;5022427;28;20008;-68
2024/03/23 11:32:39;;;;;;;;;;;;;;;-144.99;68.52;52550.00;5007681;28;19929;-68
2024/03/23 11:35:05;;;;;;;;;;;;;;;-144.99;70.25;52497.00;5017432;28;20020;-68
2024/03/23 11:37:32;;;;;;;;;;;;;;;-144.99;74.30;52554.09;5021584;28;19980;-68
2024/03/23 11:39:57;;;;;;;;;;;;;;;-144.99;76.49;52603.00;5010636;28;19971;-67
2024/03/23 11:42:24;;;;;;;;;;;;;;;-144.99;77.99;52607.09;5014562;28;20348;-68
2024/03/23 11:44:51;;;;;;;;;;;;;;;-144.99;79.87;52598.94;5017083;28;19934;-67
2024/03/23 11:47:18;;;;;;;;;;;;;;;-144.99;83.85;52594.84;5022569;28;19929;-66
2024/03/23 11:49:43;;;;;;;;;;;;;;;-144.99;86.76;52586.69;5018734;28;19976;-68
2024/03/23 11:52:09;;;;;;;;;;;;;;;-144.99;88.92;52615.25;5020303;28;19968;-66
2024/03/23 11:54:35;;;;;;;;;;;;;;;-144.99;90.41;52598.94;5012706;28;19929;-66
2024/03/23 11:57:03;;;;;;;;;;;;;;;-144.99;90.07;52611.16;5022151;28;19988;-67
2024/03/23 11:59:33;;;;;;;;;;;;;;;-144.99;89.94;52570.38;5027577;28;19964;-66
2024/03/23 12:02:01;;;;;;;;;;;;;;;-144.99;88.94;52386.94;5021170;28;20327;-66
2024/03/23 12:04:27;;;;;;;;;;;;;;;-144.99;81.75;52378.78;5014800;28;19945;-66
2024/03/23 12:07:08;;;;;;;;;;;;;;;-144.99;76.53;52338.03;5017273;28;19944;-66
2024/03/23 12:09:34;;;;;;;;;;;;;;;-144.99;69.48;52264.66;5018016;28;20031;-66
2024/03/23 12:12:06;;;;;;;;;;;;;;;-144.99;67.93;52409.38;5019241;28;19925;-66
2024/03/23 12:14:31;;;;;;;;;;;;;;;-144.99;67.86;52482.75;5007144;28;20000;-66
2024/03/23 12:17:07;;;;;;;;;;;;;;;-144.99;71.49;52547.97;5013411;28;20387;-65
2024/03/23 12:19:33;;;;;;;;;;;;;;;-144.99;73.68;52586.69;5012171;28;19968;-66